createdAt,value
2017-08-05T00:00:47.696Z,21.00
2017-08-05T00:03:15.264Z,21.10
2017-08-05T00:05:42.876Z,21.10
2017-08-05T00:08:10.417Z,21.10
2017-08-05T00:10:37.934Z,21.00
2017-08-05T00:13:05.500Z,21.00
2017-08-05T00:15:33.013Z,21.00
2017-08-05T00:18:01.522Z,21.00
2017-08-05T00:20:29.860Z,21.00
2017-08-05T00:22:57.382Z,20.90
2017-08-05T00:25:24.895Z,21.10
2017-08-05T00:27:52.460Z,21.20
2017-08-05T00:30:19.981Z,21.20
2017-08-05T00:32:47.501Z,21.10
2017-08-05T00:35:15.056Z,21.20
2017-08-05T00:37:42.612Z,21.10
2017-08-05T00:40:10.115Z,21.10
2017-08-05T00:42:37.640Z,21.20
2017-08-05T00:45:05.195Z,21.30
2017-08-05T00:47:32.705Z,21.20
2017-08-05T00:50:00.275Z,21.20
2017-08-05T00:52:27.800Z,21.10
2017-08-05T00:54:55.322Z,21.00
2017-08-05T00:57:22.885Z,21.00
2017-08-05T00:59:50.391Z,21.00
2017-08-05T01:02:17.939Z,21.20
2017-08-05T01:04:45.450Z,21.20
2017-08-05T01:07:12.983Z,21.10
2017-08-05T01:09:41.303Z,21.00
2017-08-05T01:12:08.817Z,21.00
2017-08-05T01:14:36.369Z,21.00
2017-08-05T01:17:03.879Z,20.90
2017-08-05T01:19:31.401Z,20.80
2017-08-05T01:21:58.939Z,20.80
2017-08-05T01:24:26.496Z,20.80
2017-08-05T01:26:54.048Z,20.80
2017-08-05T01:29:21.561Z,20.80
2017-08-05T01:31:49.085Z,20.80
2017-08-05T01:34:16.616Z,20.70
2017-08-05T01:36:44.119Z,20.60
2017-08-05T01:39:11.668Z,20.50
2017-08-05T01:41:39.182Z,20.50
2017-08-05T01:44:06.795Z,20.50
2017-08-05T01:46:34.364Z,20.50
2017-08-05T01:49:01.871Z,20.50
2017-08-05T01:51:29.457Z,20.60
2017-08-05T01:53:56.997Z,20.90
2017-08-05T01:56:24.549Z,20.80
2017-08-05T01:58:52.873Z,20.80
2017-08-05T02:01:20.376Z,20.70
2017-08-05T02:03:47.939Z,20.50
2017-08-05T02:06:16.236Z,20.40
2017-08-05T02:08:43.798Z,20.40
2017-08-05T02:11:11.354Z,20.50
2017-08-05T02:13:38.870Z,20.60
2017-08-05T02:16:06.408Z,20.50
2017-08-05T02:18:33.964Z,20.40
2017-08-05T02:21:01.476Z,20.50
2017-08-05T02:23:29.033Z,20.30
2017-08-05T02:25:56.551Z,20.60
2017-08-05T02:28:24.089Z,20.20
2017-08-05T02:30:51.608Z,20.10
2017-08-05T02:33:19.287Z,20.00
2017-08-05T02:35:46.812Z,19.80
2017-08-05T02:38:14.326Z,20.00
2017-08-05T02:40:41.875Z,19.80
2017-08-05T02:43:09.392Z,19.60
2017-08-05T02:45:36.906Z,19.40
2017-08-05T02:48:04.455Z,19.20
2017-08-05T02:50:31.964Z,19.40
2017-08-05T02:52:59.484Z,19.60
2017-08-05T02:55:27.041Z,19.60
2017-08-05T02:57:54.558Z,19.70
2017-08-05T03:00:22.096Z,19.70
2017-08-05T03:02:49.694Z,19.80
2017-08-05T03:05:17.216Z,19.60
2017-08-05T03:07:44.732Z,19.50
2017-08-05T03:10:12.286Z,19.60
2017-08-05T03:12:39.798Z,19.50
2017-08-05T03:15:07.325Z,19.50
2017-08-05T03:17:34.872Z,19.60
2017-08-05T03:20:02.455Z,19.60
2017-08-05T03:22:29.971Z,19.60
2017-08-05T03:24:57.484Z,19.60
2017-08-05T03:27:25.146Z,19.80
2017-08-05T03:29:52.663Z,19.60
2017-08-05T03:32:21.117Z,19.50
2017-08-05T03:34:48.629Z,19.50
2017-08-05T03:37:16.197Z,19.60
2017-08-05T03:39:43.712Z,19.50
2017-08-05T03:42:11.223Z,19.40
2017-08-05T03:44:38.764Z,19.40
2017-08-05T03:47:06.304Z,19.60
2017-08-05T03:49:33.867Z,19.60
2017-08-05T03:52:01.424Z,19.60
2017-08-05T03:54:28.974Z,19.50
2017-08-05T03:56:56.511Z,19.30
2017-08-05T03:59:24.101Z,19.40
2017-08-05T04:01:51.629Z,19.50
2017-08-05T04:04:19.135Z,19.30
2017-08-05T04:06:46.708Z,19.20
2017-08-05T04:09:14.313Z,18.90
2017-08-05T04:11:42.604Z,18.70
2017-08-05T04:14:10.180Z,18.60
2017-08-05T04:16:37.696Z,18.70
2017-08-05T04:19:05.212Z,18.70
2017-08-05T04:21:32.770Z,18.70
2017-08-05T04:24:00.340Z,18.80
2017-08-05T04:26:27.899Z,18.70
2017-08-05T04:28:55.417Z,18.70
2017-08-05T04:31:22.964Z,18.70
2017-08-05T04:33:50.542Z,18.90
2017-08-05T04:36:18.089Z,19.30
2017-08-05T04:38:45.628Z,19.60
2017-08-05T04:41:13.222Z,19.50
2017-08-05T04:43:40.741Z,19.30
2017-08-05T04:46:09.049Z,19.30
2017-08-05T04:48:36.615Z,19.30
2017-08-05T04:51:04.427Z,19.60
2017-08-05T04:53:31.936Z,19.70
2017-08-05T04:55:59.483Z,19.60
2017-08-05T04:58:26.997Z,19.60
2017-08-05T05:00:54.553Z,19.80
2017-08-05T05:03:22.104Z,19.90
2017-08-05T05:05:49.628Z,20.20
2017-08-05T05:08:17.176Z,20.30
2017-08-05T05:10:44.697Z,20.50
2017-08-05T05:13:12.300Z,20.60
2017-08-05T05:15:39.820Z,20.70
2017-08-05T05:18:07.363Z,20.90
2017-08-05T05:20:35.672Z,21.50
2017-08-05T05:23:03.211Z,21.50
2017-08-05T05:25:30.753Z,21.60
2017-08-05T05:27:59.042Z,21.80
2017-08-05T05:30:26.605Z,21.70
2017-08-05T05:32:54.120Z,21.60
2017-08-05T05:35:21.632Z,21.60
2017-08-05T05:37:49.176Z,21.60
2017-08-05T05:40:16.705Z,21.70
2017-08-05T05:42:44.284Z,21.70
2017-08-05T05:45:12.567Z,21.70
2017-08-05T05:47:40.131Z,21.60
2017-08-05T05:50:07.655Z,21.60
2017-08-05T05:52:35.169Z,21.70
2017-08-05T05:55:02.695Z,21.90
2017-08-05T05:57:30.324Z,21.90
2017-08-05T05:59:57.872Z,21.90
2017-08-05T06:02:26.021Z,22.00
2017-08-05T06:04:53.634Z,22.10
2017-08-05T06:07:21.168Z,22.30
2017-08-05T06:09:49.512Z,22.50
2017-08-05T06:12:17.051Z,22.50
2017-08-05T06:14:44.563Z,22.60
2017-08-05T06:17:12.124Z,22.60
2017-08-05T06:19:39.650Z,22.50
2017-08-05T06:22:07.159Z,22.80
2017-08-05T06:24:34.721Z,22.90
2017-08-05T06:27:02.280Z,22.90
2017-08-05T06:29:29.821Z,22.90
2017-08-05T06:31:58.113Z,23.20
2017-08-05T06:34:25.668Z,23.20
2017-08-05T06:36:53.206Z,23.40
2017-08-05T06:39:21.505Z,23.30
2017-08-05T06:41:49.068Z,23.30
2017-08-05T06:44:16.597Z,23.50
2017-08-05T06:46:44.118Z,23.60
2017-08-05T06:49:11.675Z,23.70
2017-08-05T06:51:39.199Z,23.90
2017-08-05T06:54:06.712Z,24.10
2017-08-05T06:56:34.265Z,24.00
2017-08-05T06:59:02.429Z,24.20
2017-08-05T07:01:29.951Z,24.20
2017-08-05T07:03:57.522Z,24.30
2017-08-05T07:06:25.060Z,24.20
2017-08-05T07:08:52.597Z,24.30
2017-08-05T07:11:20.144Z,24.70
2017-08-05T07:13:48.427Z,24.50
2017-08-05T07:16:16.744Z,24.70
2017-08-05T07:18:44.250Z,24.60
2017-08-05T07:21:11.815Z,24.70
2017-08-05T07:23:40.100Z,25.00
2017-08-05T07:26:08.439Z,24.90
2017-08-05T07:28:35.966Z,24.90
2017-08-05T07:31:03.509Z,24.80
2017-08-05T07:33:31.051Z,24.80
2017-08-05T07:35:58.599Z,25.10
2017-08-05T07:38:26.149Z,24.90
2017-08-05T07:40:53.675Z,25.20
2017-08-05T07:43:21.268Z,25.20
2017-08-05T07:45:48.819Z,25.50
2017-08-05T07:48:16.358Z,25.40
2017-08-05T07:50:43.933Z,25.20
2017-08-05T07:53:12.215Z,25.70
2017-08-05T07:55:39.782Z,25.70
2017-08-05T07:58:07.323Z,25.20
2017-08-05T08:00:34.967Z,25.30
2017-08-05T08:03:02.538Z,25.80
2017-08-05T08:05:30.053Z,26.00
2017-08-05T08:07:57.569Z,26.30
2017-08-05T08:10:25.137Z,26.20
2017-08-05T08:12:52.664Z,26.40
2017-08-05T08:15:20.172Z,26.70
2017-08-05T08:17:47.696Z,27.10
2017-08-05T08:20:15.213Z,27.30
2017-08-05T08:22:42.752Z,26.90
2017-08-05T08:25:10.272Z,26.90
2017-08-05T08:27:38.573Z,27.40
2017-08-05T08:30:06.142Z,27.40
2017-08-05T08:32:33.658Z,27.80
2017-08-05T08:35:01.171Z,28.00
2017-08-05T08:37:28.727Z,28.20
2017-08-05T08:39:56.251Z,28.40
2017-08-05T08:42:23.773Z,28.60
2017-08-05T08:44:51.351Z,28.80
2017-08-05T08:47:18.868Z,28.90
2017-08-05T08:49:46.388Z,28.30
2017-08-05T08:52:13.923Z,28.60
2017-08-05T08:54:41.480Z,28.60
2017-08-05T08:57:09.802Z,28.50
2017-08-05T08:59:37.352Z,28.40
2017-08-05T09:02:04.863Z,28.90
2017-08-05T09:04:33.212Z,28.70
2017-08-05T09:07:00.741Z,28.60
2017-08-05T09:09:28.288Z,29.00
2017-08-05T09:11:55.815Z,29.10
2017-08-05T09:14:23.380Z,29.00
2017-08-05T09:16:50.952Z,29.10
2017-08-05T09:19:18.471Z,29.00
2017-08-05T09:21:46.034Z,28.80
2017-08-05T09:24:13.580Z,28.70
2017-08-05T09:26:41.110Z,28.60
2017-08-05T09:29:08.658Z,29.10
2017-08-05T09:31:36.200Z,29.60
2017-08-05T09:34:03.739Z,29.60
2017-08-05T09:36:31.257Z,29.90
2017-08-05T09:38:58.788Z,29.70
2017-08-05T09:41:26.317Z,29.50
2017-08-05T09:43:53.853Z,29.30
2017-08-05T09:46:21.377Z,29.20
2017-08-05T09:48:48.934Z,29.40
2017-08-05T09:51:16.453Z,29.80
2017-08-05T09:53:44.012Z,30.10
2017-08-05T09:56:11.532Z,30.20
2017-08-05T09:58:39.035Z,30.20
2017-08-05T10:01:06.597Z,30.40
2017-08-05T10:03:34.103Z,30.50
2017-08-05T10:06:01.625Z,30.50
2017-08-05T10:08:29.177Z,30.60
2017-08-05T10:10:56.748Z,30.40
2017-08-05T10:13:24.268Z,30.20
2017-08-05T10:15:51.788Z,30.70
2017-08-05T10:18:19.335Z,31.20
2017-08-05T10:20:46.880Z,31.50
2017-08-05T10:23:14.437Z,31.50
2017-08-05T10:25:41.995Z,31.50
2017-08-05T10:28:09.506Z,31.70
2017-08-05T10:30:37.053Z,31.90
2017-08-05T10:33:04.565Z,32.00
2017-08-05T10:35:32.117Z,32.20
2017-08-05T10:37:59.634Z,32.20
2017-08-05T10:40:27.179Z,32.40
2017-08-05T10:42:54.696Z,32.60
2017-08-05T10:45:22.216Z,32.70
2017-08-05T10:47:49.763Z,32.80
2017-08-05T10:50:17.286Z,32.70
2017-08-05T10:52:44.837Z,32.80
2017-08-05T10:55:12.349Z,32.70
2017-08-05T10:57:39.855Z,32.90
2017-08-05T11:00:07.404Z,33.00
2017-08-05T11:02:34.908Z,33.00
2017-08-05T11:05:02.451Z,33.00
2017-08-05T11:07:29.959Z,33.20
2017-08-05T11:09:57.491Z,33.30
2017-08-05T11:12:25.034Z,33.40
2017-08-05T11:14:52.555Z,33.50
2017-08-05T11:17:20.093Z,33.10
2017-08-05T11:19:47.612Z,33.10
2017-08-05T11:22:15.163Z,33.20
2017-08-05T11:24:42.720Z,33.30
2017-08-05T11:27:10.255Z,33.70
2017-08-05T11:29:37.772Z,33.80
2017-08-05T11:32:05.307Z,33.70
2017-08-05T11:34:32.876Z,33.80
2017-08-05T11:37:00.392Z,33.20
2017-08-05T11:39:27.921Z,33.20
2017-08-05T11:41:55.462Z,33.50
2017-08-05T11:44:22.995Z,33.40
2017-08-05T11:46:50.544Z,33.50
2017-08-05T11:49:18.072Z,33.70
2017-08-05T11:51:45.619Z,33.80
2017-08-05T11:54:13.164Z,33.90
2017-08-05T11:56:40.748Z,33.60
2017-08-05T11:59:08.275Z,33.60
2017-08-05T12:01:35.792Z,33.40
2017-08-05T12:04:03.336Z,33.20
2017-08-05T12:06:30.892Z,32.60
2017-08-05T12:08:58.396Z,32.20
2017-08-05T12:11:25.912Z,31.70
2017-08-05T12:13:53.471Z,31.60
2017-08-05T12:16:20.981Z,31.30
2017-08-05T12:18:48.496Z,31.10
2017-08-05T12:21:16.041Z,31.10
2017-08-05T12:23:43.579Z,30.80
2017-08-05T12:26:11.098Z,30.70
2017-08-05T12:28:38.640Z,30.70
2017-08-05T12:31:06.168Z,30.50
2017-08-05T12:33:33.683Z,30.40
2017-08-05T12:36:01.219Z,30.30
2017-08-05T12:38:28.731Z,30.50
2017-08-05T12:40:57.058Z,30.90
2017-08-05T12:43:24.567Z,30.80
2017-08-05T12:45:52.072Z,31.50
2017-08-05T12:48:19.623Z,31.90
2017-08-05T12:50:47.149Z,32.20
2017-08-05T12:53:14.656Z,32.00
2017-08-05T12:55:42.201Z,31.60
2017-08-05T12:58:09.710Z,31.40
2017-08-05T13:00:38.030Z,31.10
2017-08-05T13:03:05.542Z,31.00
2017-08-05T13:05:33.072Z,31.20
2017-08-05T13:08:00.627Z,31.20
2017-08-05T13:10:28.144Z,31.20
2017-08-05T13:12:55.664Z,31.00
2017-08-05T13:15:23.977Z,30.50
2017-08-05T13:17:51.530Z,30.50
2017-08-05T13:20:19.411Z,30.30
2017-08-05T13:22:46.929Z,30.40
2017-08-05T13:25:14.465Z,30.40
2017-08-05T13:27:42.016Z,30.60
2017-08-05T13:30:09.544Z,30.70
2017-08-05T13:32:37.087Z,30.80
2017-08-05T13:35:04.601Z,30.70
2017-08-05T13:37:32.908Z,30.50
2017-08-05T13:40:00.420Z,30.50
2017-08-05T13:42:27.985Z,30.50
2017-08-05T13:44:55.499Z,30.30
2017-08-05T13:47:23.016Z,30.20
2017-08-05T13:49:51.344Z,30.20
2017-08-05T13:52:18.905Z,30.10
2017-08-05T13:54:46.464Z,30.20
2017-08-05T13:57:13.975Z,30.30
2017-08-05T13:59:41.487Z,30.40
2017-08-05T14:02:09.036Z,30.40
2017-08-05T14:04:36.559Z,30.20
2017-08-05T14:07:04.106Z,30.10
2017-08-05T14:09:31.631Z,30.00
2017-08-05T14:11:59.190Z,29.80
2017-08-05T14:14:27.475Z,29.60
2017-08-05T14:16:55.748Z,29.60
2017-08-05T14:19:24.069Z,29.40
2017-08-05T14:21:51.596Z,29.40
2017-08-05T14:24:19.116Z,29.30
2017-08-05T14:26:46.751Z,29.20
2017-08-05T14:29:14.327Z,29.20
2017-08-05T14:31:41.841Z,29.10
2017-08-05T14:34:09.359Z,29.00
2017-08-05T14:36:37.691Z,28.90
2017-08-05T14:39:05.219Z,28.80
2017-08-05T14:41:32.749Z,28.90
2017-08-05T14:44:00.298Z,28.80
2017-08-05T14:46:27.839Z,28.70
2017-08-05T14:48:55.394Z,28.60
2017-08-05T14:51:22.907Z,28.50
2017-08-05T14:53:50.435Z,28.50
2017-08-05T14:56:17.981Z,28.50
2017-08-05T14:58:45.487Z,28.50
2017-08-05T15:01:13.043Z,28.50
2017-08-05T15:03:40.563Z,28.50
2017-08-05T15:06:08.074Z,28.40
2017-08-05T15:08:35.640Z,28.40
2017-08-05T15:11:03.165Z,28.40
2017-08-05T15:13:30.681Z,28.40
2017-08-05T15:15:58.243Z,28.30
2017-08-05T15:18:25.756Z,28.40
2017-08-05T15:20:53.296Z,28.40
2017-08-05T15:23:20.860Z,28.40
2017-08-05T15:25:48.433Z,28.40
2017-08-05T15:28:16.004Z,28.60
2017-08-05T15:30:43.534Z,28.70
2017-08-05T15:33:11.077Z,28.80
2017-08-05T15:35:38.661Z,28.80
2017-08-05T15:38:06.236Z,28.80
2017-08-05T15:40:33.788Z,28.80
2017-08-05T15:43:01.306Z,28.80
2017-08-05T15:45:30.823Z,28.70
2017-08-05T15:47:58.403Z,28.60
2017-08-05T15:50:25.940Z,28.60
2017-08-05T15:52:53.477Z,28.60
2017-08-05T15:55:21.760Z,28.40
2017-08-05T15:57:49.319Z,28.40
2017-08-05T16:00:16.883Z,28.60
2017-08-05T16:02:44.428Z,28.60
2017-08-05T16:05:11.946Z,28.60
2017-08-05T16:07:39.478Z,28.40
2017-08-05T16:10:06.995Z,28.30
2017-08-05T16:12:34.564Z,28.40
2017-08-05T16:15:02.083Z,28.30
2017-08-05T16:17:29.616Z,28.20
2017-08-05T16:19:57.164Z,28.40
2017-08-05T16:22:24.672Z,28.40
2017-08-05T16:24:53.000Z,28.40
2017-08-05T16:27:20.527Z,28.30
2017-08-05T16:29:48.040Z,28.30
2017-08-05T16:32:15.617Z,28.40
2017-08-05T16:34:43.901Z,28.10
2017-08-05T16:37:12.219Z,27.90
2017-08-05T16:39:39.756Z,27.90
2017-08-05T16:42:07.321Z,27.70
2017-08-05T16:44:34.846Z,27.70
2017-08-05T16:47:02.411Z,27.50
2017-08-05T16:49:30.704Z,27.30
2017-08-05T16:51:58.230Z,27.20
2017-08-05T16:54:26.543Z,27.20
2017-08-05T16:56:54.052Z,27.10
2017-08-05T16:59:21.619Z,27.20
2017-08-05T17:01:49.908Z,27.30
2017-08-05T17:04:18.274Z,27.40
2017-08-05T17:06:45.787Z,27.40
2017-08-05T17:09:13.306Z,27.50
2017-08-05T17:11:40.860Z,27.50
2017-08-05T17:14:08.363Z,27.50
2017-08-05T17:16:35.884Z,27.50
2017-08-05T17:19:03.411Z,27.30
2017-08-05T17:21:30.954Z,27.20
2017-08-05T17:23:58.471Z,27.10
2017-08-05T17:26:26.033Z,27.00
2017-08-05T17:28:53.548Z,26.90
2017-08-05T17:31:21.055Z,26.80
2017-08-05T17:33:48.612Z,26.70
2017-08-05T17:36:16.131Z,26.60
2017-08-05T17:38:43.691Z,26.60
2017-08-05T17:41:11.225Z,26.70
2017-08-05T17:43:38.757Z,26.70
2017-08-05T17:46:06.317Z,26.60
2017-08-05T17:48:33.829Z,26.40
2017-08-05T17:51:01.358Z,26.30
2017-08-05T17:53:29.668Z,26.20
2017-08-05T17:55:57.283Z,26.20
2017-08-05T17:58:24.810Z,26.20
2017-08-05T18:00:52.367Z,26.20
2017-08-05T18:03:19.877Z,26.30
2017-08-05T18:05:47.396Z,26.70
2017-08-05T18:08:14.948Z,26.60
2017-08-05T18:10:42.488Z,26.50
2017-08-05T18:13:10.032Z,26.30
2017-08-05T18:15:37.548Z,26.40
2017-08-05T18:18:05.059Z,26.50
2017-08-05T18:20:32.616Z,26.40
2017-08-05T18:23:00.135Z,26.20
2017-08-05T18:25:27.651Z,26.00
2017-08-05T18:27:55.200Z,25.90
2017-08-05T18:30:22.717Z,26.00
2017-08-05T18:32:50.240Z,26.00
2017-08-05T18:35:17.808Z,26.00
2017-08-05T18:37:45.320Z,26.00
2017-08-05T18:40:12.829Z,25.90
2017-08-05T18:42:40.378Z,25.90
2017-08-05T18:45:07.927Z,25.90
2017-08-05T18:47:35.449Z,25.90
2017-08-05T18:50:02.996Z,25.80
2017-08-05T18:52:30.518Z,25.70
2017-08-05T18:54:58.884Z,25.50
2017-08-05T18:57:26.405Z,25.50
2017-08-05T18:59:53.924Z,25.50
2017-08-05T19:02:21.503Z,25.50
2017-08-05T19:04:49.023Z,25.40
2017-08-05T19:07:17.303Z,25.30
2017-08-05T19:09:44.870Z,25.20
2017-08-05T19:12:12.375Z,25.10
2017-08-05T19:14:39.909Z,25.00
2017-08-05T19:17:07.454Z,24.90
2017-08-05T19:19:34.980Z,24.80
2017-08-05T19:22:02.524Z,24.70
2017-08-05T19:24:30.043Z,24.70
2017-08-05T19:26:57.561Z,24.60
2017-08-05T19:29:25.123Z,24.60
2017-08-05T19:31:53.435Z,24.60
2017-08-05T19:34:20.998Z,24.60
2017-08-05T19:36:48.536Z,24.70
2017-08-05T19:39:16.053Z,24.60
2017-08-05T19:41:43.624Z,24.40
2017-08-05T19:44:11.912Z,24.50
2017-08-05T19:46:39.421Z,24.40
2017-08-05T19:49:06.964Z,24.40
2017-08-05T19:51:34.489Z,24.60
2017-08-05T19:54:02.053Z,24.20
2017-08-05T19:56:29.608Z,23.80
2017-08-05T19:58:57.133Z,23.70
2017-08-05T20:01:24.734Z,23.60
2017-08-05T20:03:52.261Z,23.60
2017-08-05T20:06:19.785Z,23.50
2017-08-05T20:08:48.153Z,23.30
2017-08-05T20:11:15.675Z,23.20
2017-08-05T20:13:43.237Z,23.40
2017-08-05T20:16:10.764Z,23.20
2017-08-05T20:18:38.340Z,23.20
2017-08-05T20:21:05.867Z,23.20
2017-08-05T20:23:33.386Z,23.10
2017-08-05T20:26:00.948Z,23.10
2017-08-05T20:28:28.462Z,23.00
2017-08-05T20:30:56.765Z,23.00
2017-08-05T20:33:24.279Z,23.00
2017-08-05T20:35:51.851Z,23.30
2017-08-05T20:38:20.131Z,22.90
2017-08-05T20:40:47.662Z,22.90
2017-08-05T20:43:15.232Z,22.90
2017-08-05T20:45:42.755Z,23.00
2017-08-05T20:48:10.341Z,23.00
2017-08-05T20:50:37.905Z,23.00
2017-08-05T20:53:05.447Z,22.90
2017-08-05T20:55:32.989Z,22.80
2017-08-05T20:58:00.523Z,22.80
2017-08-05T21:00:28.041Z,22.90
2017-08-05T21:02:55.604Z,23.00
2017-08-05T21:05:23.206Z,23.00
2017-08-05T21:07:50.741Z,23.00
2017-08-05T21:10:18.296Z,22.80
2017-08-05T21:12:45.825Z,22.70
2017-08-05T21:15:13.377Z,22.60
2017-08-05T21:17:40.921Z,22.80
2017-08-05T21:20:08.467Z,22.80
2017-08-05T21:22:35.994Z,22.60
2017-08-05T21:25:03.569Z,22.50
2017-08-05T21:27:31.091Z,22.40
2017-08-05T21:29:58.660Z,22.40
2017-08-05T21:32:26.194Z,22.30
2017-08-05T21:34:54.525Z,22.40
2017-08-05T21:37:22.089Z,22.30
2017-08-05T21:39:49.628Z,22.40
2017-08-05T21:42:17.187Z,22.20
2017-08-05T21:44:44.755Z,22.10
2017-08-05T21:47:12.315Z,21.90
2017-08-05T21:49:40.377Z,21.90
2017-08-05T21:52:07.944Z,21.80
2017-08-05T21:54:35.515Z,21.70
2017-08-05T21:57:03.121Z,21.80
2017-08-05T21:59:30.660Z,21.80
2017-08-05T22:01:58.246Z,21.80
2017-08-05T22:04:25.920Z,21.80
2017-08-05T22:06:53.491Z,21.90
2017-08-05T22:09:21.033Z,22.00
2017-08-05T22:11:48.601Z,21.90
2017-08-05T22:14:16.401Z,21.70
2017-08-05T22:16:43.992Z,21.70
2017-08-05T22:19:11.551Z,21.70
2017-08-05T22:21:39.137Z,21.60
2017-08-05T22:24:06.724Z,21.60
2017-08-05T22:26:34.297Z,21.60
2017-08-05T22:29:01.811Z,21.50
2017-08-05T22:31:29.452Z,21.30
2017-08-05T22:33:57.029Z,21.10
2017-08-05T22:36:24.584Z,21.20
2017-08-05T22:38:52.187Z,21.30
2017-08-05T22:41:20.517Z,21.30
2017-08-05T22:43:48.097Z,21.20
2017-08-05T22:46:15.673Z,21.20
2017-08-05T22:48:44.048Z,21.40
2017-08-05T22:51:12.403Z,21.30
2017-08-05T22:53:39.977Z,21.20
2017-08-05T22:56:07.600Z,21.10
2017-08-05T22:58:35.151Z,21.10
2017-08-05T23:01:02.751Z,21.20
2017-08-05T23:03:30.340Z,21.10
2017-08-05T23:05:57.937Z,21.10
2017-08-05T23:08:25.520Z,21.10
2017-08-05T23:10:53.121Z,21.10
2017-08-05T23:13:20.684Z,20.90
2017-08-05T23:15:48.287Z,20.90
2017-08-05T23:18:15.868Z,20.80
2017-08-05T23:20:43.387Z,20.70
2017-08-05T23:23:10.941Z,20.70
2017-08-05T23:25:38.534Z,20.70
2017-08-05T23:28:06.101Z,20.60
2017-08-05T23:30:33.724Z,20.60
2017-08-05T23:33:01.273Z,20.50
2017-08-05T23:35:28.844Z,20.50
2017-08-05T23:37:56.469Z,20.50
2017-08-05T23:40:24.015Z,20.30
2017-08-05T23:42:51.586Z,20.50
2017-08-05T23:45:19.530Z,20.40
2017-08-05T23:47:47.857Z,20.40
2017-08-05T23:50:15.398Z,20.40
2017-08-05T23:52:42.994Z,20.40
2017-08-05T23:55:10.557Z,20.50
2017-08-05T23:57:38.134Z,20.50
